Time;durP1;ratioP1;P1;durP2;ratioP2;P2;SDS_P1;SDS_P2;PMS_P1;PMS_P2;Temp;Humidity;BMP_temperature;BMP_pressure;BME280_temperature;BME280_humidity;BME280_pressure;Samples;Min_cycle;Max_cycle;Signal;HPM_P1;HPM_P2
2022/02/11 00:00:53;;;;;;;;;;;20.50;54.00;;;;;;4987877;28;20444;-56
2022/02/11 00:08:32;;;;;;;;;;;20.40;53.80;;;;;;5003603;28;19916;-54
2022/02/11 00:10:57;;;;;;;;;;;20.40;53.90;;;;;;5003648;28;20428;-56
2022/02/11 00:13:22;;;;;;;;;;;20.50;53.90;;;;;;5005093;28;19917;-59
2022/02/11 00:15:52;;;;;;;;;;;20.50;53.90;;;;;;5003736;28;19964;-56
2022/02/11 00:18:17;;;;;;;;;;;20.50;53.80;;;;;;4986539;28;19944;-56
2022/02/11 00:20:44;;;;;;;;;;;20.50;53.80;;;;;;4988757;28;19910;-58
2022/02/11 00:23:09;;;;;;;;;;;20.40;53.60;;;;;;5003383;28;19975;-54
2022/02/11 00:25:37;;;;;;;;;;;20.40;53.70;;;;;;5003007;28;20367;-55
2022/02/11 00:28:47;;;;;;;;;;;20.50;53.60;;;;;;4969877;28;19913;-59
2022/02/11 00:33:24;;;;;;;;;;;20.50;53.60;;;;;;5003455;28;20362;-58
2022/02/11 00:35:55;;;;;;;;;;;20.40;53.40;;;;;;5007216;28;19909;-58
2022/02/11 00:38:31;;;;;;;;;;;20.40;53.60;;;;;;5003177;28;19915;-52
2022/02/11 00:47:15;;;;;;;;;;;20.40;53.50;;;;;;5006939;28;19921;-53
2022/02/11 01:03:11;;;;;;;;;;;20.50;53.60;;;;;;5006799;28;19924;-54
2022/02/11 01:05:37;;;;;;;;;;;20.50;53.50;;;;;;5006643;28;20350;-56
2022/02/11 01:08:02;;;;;;;;;;;20.50;53.40;;;;;;4988611;28;19910;-56
2022/02/11 01:10:28;;;;;;;;;;;20.50;54.00;;;;;;5014056;28;19910;-54
2022/02/11 01:12:54;;;;;;;;;;;20.40;53.40;;;;;;4989359;28;19917;-54
2022/02/11 01:15:20;;;;;;;;;;;20.40;53.40;;;;;;4988486;28;20322;-59
2022/02/11 01:17:50;;;;;;;;;;;20.50;53.30;;;;;;5006974;28;19910;-57
2022/02/11 01:20:43;;;;;;;;;;;20.50;53.30;;;;;;5008177;28;19910;-56
2022/02/11 01:25:55;;;;;;;;;;;20.50;53.30;;;;;;5005836;28;19909;-54
2022/02/11 01:28:37;;;;;;;;;;;20.50;53.40;;;;;;5005789;28;20280;-57
2022/02/11 01:31:13;;;;;;;;;;;20.50;53.30;;;;;;4990787;28;19921;-55
2022/02/11 01:39:33;;;;;;;;;;;20.50;53.30;;;;;;5004820;28;20387;-52
2022/02/11 01:44:32;;;;;;;;;;;20.50;53.40;;;;;;5005764;28;20020;-56
2022/02/11 02:17:09;;;;;;;;;;;20.50;53.30;;;;;;5004521;28;19952;-58
2022/02/11 02:22:00;;;;;;;;;;;20.50;53.20;;;;;;5005295;28;19910;-57
2022/02/11 02:24:38;;;;;;;;;;;20.40;53.00;;;;;;5004025;28;20617;-56
2022/02/11 02:27:30;;;;;;;;;;;20.50;53.10;;;;;;5001688;28;19921;-57
2022/02/11 02:31:20;;;;;;;;;;;20.40;53.10;;;;;;5002302;28;19916;-59
2022/02/11 03:49:29;;;;;;;;;;;20.30;51.30;;;;;;5014006;28;20004;-56
2022/02/11 03:55:31;;;;;;;;;;;20.30;51.20;;;;;;4987952;28;19909;-56
2022/02/11 04:20:18;;;;;;;;;;;20.30;51.30;;;;;;5039989;28;19974;-54
2022/02/11 04:55:01;;;;;;;;;;;20.20;52.10;;;;;;5027393;28;19916;-55
2022/02/11 05:00:14;;;;;;;;;;;20.20;52.00;;;;;;5017065;28;19954;-59
2022/02/11 05:02:40;;;;;;;;;;;20.20;52.10;;;;;;5040852;28;19908;-52
2022/02/11 05:05:08;;;;;;;;;;;20.20;52.10;;;;;;5022671;28;20415;-54
2022/02/11 05:07:34;;;;;;;;;;;20.30;52.20;;;;;;5031704;28;19909;-53
2022/02/11 05:10:00;;;;;;;;;;;20.30;52.10;;;;;;5013200;28;19913;-55
2022/02/11 05:12:25;;;;;;;;;;;20.30;52.30;;;;;;5031172;28;20367;-55
2022/02/11 05:14:51;;;;;;;;;;;20.30;52.20;;;;;;5012642;28;19908;-52
2022/02/11 05:17:16;;;;;;;;;;;20.30;52.10;;;;;;4993292;28;19913;-59
2022/02/11 05:19:42;;;;;;;;;;;20.30;52.20;;;;;;5022508;28;19917;-56
2022/02/11 05:22:07;;;;;;;;;;;20.30;52.10;;;;;;5042199;28;19913;-51
2022/02/11 05:24:33;;;;;;;;;;;20.30;52.10;;;;;;5037374;28;19913;-59
2022/02/11 05:26:58;;;;;;;;;;;20.30;52.20;;;;;;5023258;28;19913;-54
2022/02/11 05:29:24;;;;;;;;;;;20.40;52.20;;;;;;5016884;28;19909;-54
2022/02/11 05:31:50;;;;;;;;;;;20.40;52.30;;;;;;5030039;28;20401;-58
2022/02/11 05:34:16;;;;;;;;;;;20.40;52.20;;;;;;5039126;28;19916;-54
2022/02/11 05:36:41;;;;;;;;;;;20.30;52.10;;;;;;5034425;28;19909;-59
2022/02/11 05:39:06;;;;;;;;;;;20.30;52.20;;;;;;5033971;28;19920;-55
2022/02/11 05:41:32;;;;;;;;;;;20.30;52.20;;;;;;5039090;28;19915;-55
2022/02/11 05:43:58;;;;;;;;;;;20.40;52.30;;;;;;5026155;28;19913;-57
2022/02/11 05:46:27;;;;;;;;;;;20.30;52.30;;;;;;5043086;28;19965;-56
2022/02/11 05:48:53;;;;;;;;;;;20.40;52.20;;;;;;5025481;28;19944;-60
2022/02/11 05:51:18;;;;;;;;;;;20.30;52.20;;;;;;5030328;28;19959;-57
2022/02/11 05:53:44;;;;;;;;;;;20.40;52.20;;;;;;5030777;28;19908;-56
2022/02/11 05:56:09;;;;;;;;;;;20.30;52.10;;;;;;5046349;28;19920;-56
2022/02/11 05:58:37;;;;;;;;;;;20.30;52.20;;;;;;5009008;28;19931;-51
2022/02/11 06:01:02;;;;;;;;;;;20.30;52.20;;;;;;5029857;28;19995;-56
2022/02/11 06:03:28;;;;;;;;;;;20.30;52.10;;;;;;5042904;28;20004;-56
2022/02/11 06:05:53;;;;;;;;;;;20.30;52.00;;;;;;5006874;28;20400;-60
2022/02/11 06:08:19;;;;;;;;;;;20.30;52.00;;;;;;5034744;28;19920;-55
2022/02/11 06:10:44;;;;;;;;;;;20.30;52.20;;;;;;5038105;28;20354;-54
2022/02/11 06:13:10;;;;;;;;;;;20.30;52.00;;;;;;5038783;28;19921;-58
2022/02/11 06:15:35;;;;;;;;;;;20.30;51.90;;;;;;5035632;28;19916;-53
2022/02/11 06:18:01;;;;;;;;;;;20.30;52.10;;;;;;5037051;28;20294;-56
2022/02/11 06:20:29;;;;;;;;;;;20.30;52.10;;;;;;5031277;28;19908;-58
2022/02/11 06:22:55;;;;;;;;;;;20.30;52.10;;;;;;5019239;28;20355;-57
2022/02/11 06:25:21;;;;;;;;;;;20.30;52.10;;;;;;5019277;28;19916;-61
2022/02/11 06:27:46;;;;;;;;;;;20.30;52.10;;;;;;5018654;28;19909;-52
2022/02/11 06:30:12;;;;;;;;;;;20.20;51.90;;;;;;5044290;28;20347;-55
2022/02/11 06:32:37;;;;;;;;;;;20.20;52.00;;;;;;5034167;28;19921;-56
2022/02/11 06:35:03;;;;;;;;;;;20.20;51.90;;;;;;5033932;28;19912;-61
2022/02/11 06:37:28;;;;;;;;;;;20.20;52.00;;;;;;5040287;28;19937;-54
2022/02/11 06:39:54;;;;;;;;;;;20.20;51.90;;;;;;5029567;28;19915;-52
2022/02/11 06:42:19;;;;;;;;;;;20.20;51.90;;;;;;5036784;28;20267;-62
2022/02/11 06:44:45;;;;;;;;;;;20.20;51.90;;;;;;5018816;28;19909;-52
2022/02/11 06:47:11;;;;;;;;;;;20.20;51.70;;;;;;5035020;28;19916;-57
2022/02/11 06:49:36;;;;;;;;;;;20.20;51.40;;;;;;5034405;28;19915;-59
2022/02/11 06:52:02;;;;;;;;;;;20.20;51.60;;;;;;5033034;28;20418;-55
2022/02/11 06:54:28;;;;;;;;;;;20.20;51.20;;;;;;5028592;28;19925;-57
2022/02/11 06:56:53;;;;;;;;;;;20.30;51.10;;;;;;5035081;28;19919;-55
2022/02/11 06:59:19;;;;;;;;;;;20.30;51.20;;;;;;5035842;28;19986;-59
2022/02/11 07:01:44;;;;;;;;;;;20.20;50.80;;;;;;5041291;28;19917;-60
2022/02/11 07:04:10;;;;;;;;;;;20.20;50.80;;;;;;5030055;28;19917;-56
2022/02/11 07:06:35;;;;;;;;;;;20.20;50.50;;;;;;5018001;28;20361;-58
2022/02/11 07:09:01;;;;;;;;;;;20.20;50.20;;;;;;5033078;28;19909;-57
2022/02/11 07:11:26;;;;;;;;;;;20.20;50.30;;;;;;5028225;28;19913;-56
2022/02/11 07:13:52;;;;;;;;;;;20.20;50.20;;;;;;5032812;28;19917;-58
2022/02/11 07:16:17;;;;;;;;;;;20.20;50.00;;;;;;5029588;28;20503;-53
2022/02/11 07:18:43;;;;;;;;;;;20.20;50.00;;;;;;5027323;28;19909;-58
2022/02/11 07:21:08;;;;;;;;;;;20.20;50.00;;;;;;5011959;28;19913;-56
2022/02/11 07:23:34;;;;;;;;;;;20.20;49.90;;;;;;5029862;28;19909;-57
2022/02/11 07:25:59;;;;;;;;;;;20.20;50.10;;;;;;5018373;28;19917;-55
2022/02/11 07:28:25;;;;;;;;;;;20.30;50.40;;;;;;5026376;28;19932;-56
2022/02/11 07:30:51;;;;;;;;;;;20.20;50.60;;;;;;5036197;28;19909;-58
2022/02/11 07:33:19;;;;;;;;;;;20.20;50.80;;;;;;5026622;28;19912;-55
2022/02/11 07:35:45;;;;;;;;;;;20.20;51.00;;;;;;5033763;28;19916;-56
2022/02/11 07:38:10;;;;;;;;;;;20.20;51.10;;;;;;5033728;28;20366;-53
2022/02/11 07:40:39;;;;;;;;;;;20.20;51.20;;;;;;5042775;28;19909;-53
2022/02/11 07:43:04;;;;;;;;;;;20.10;51.30;;;;;;5026943;28;20067;-53
2022/02/11 07:45:31;;;;;;;;;;;20.10;51.30;;;;;;5045634;22;20010;-62
2022/02/11 07:47:56;;;;;;;;;;;20.10;51.40;;;;;;5060134;28;19912;-63
2022/02/11 07:50:22;;;;;;;;;;;20.10;51.50;;;;;;5061989;28;19915;-63
2022/02/11 07:52:47;;;;;;;;;;;20.10;51.50;;;;;;5063063;28;20500;-62
2022/02/11 07:55:13;;;;;;;;;;;20.10;51.50;;;;;;5063008;28;19916;-63
2022/02/11 07:57:38;;;;;;;;;;;20.00;51.50;;;;;;5062731;28;20364;-62
2022/02/11 08:00:04;;;;;;;;;;;20.00;51.50;;;;;;5061964;28;19912;-63
2022/02/11 08:02:36;;;;;;;;;;;20.00;51.50;;;;;;5063464;28;19909;-63
2022/02/11 08:05:05;;;;;;;;;;;20.10;51.80;;;;;;5062290;28;19908;-63
2022/02/11 08:07:31;;;;;;;;;;;20.10;51.90;;;;;;5028613;28;19959;-64
2022/02/11 08:09:56;;;;;;;;;;;20.10;52.00;;;;;;5070313;28;19908;-64
2022/02/11 08:12:21;;;;;;;;;;;20.10;52.10;;;;;;5067691;28;19930;-61
2022/02/11 08:14:47;;;;;;;;;;;20.10;52.00;;;;;;5063767;28;20372;-64
2022/02/11 08:17:12;;;;;;;;;;;20.10;52.00;;;;;;5064060;28;19913;-63
2022/02/11 08:19:38;;;;;;;;;;;20.10;52.00;;;;;;5063497;28;19908;-62
2022/02/11 08:22:03;;;;;;;;;;;20.10;52.00;;;;;;5062586;28;20727;-63
2022/02/11 08:24:29;;;;;;;;;;;20.20;52.00;;;;;;5062471;28;19916;-63
2022/02/11 08:26:54;;;;;;;;;;;20.10;52.00;;;;;;5062492;28;19913;-62
2022/02/11 08:29:25;;;;;;;;;;;20.20;52.60;;;;;;5061881;28;19913;-62
2022/02/11 08:31:51;;;;;;;;;;;20.20;52.00;;;;;;5035067;28;19919;-63
2022/02/11 08:34:16;;;;;;;;;;;20.10;52.00;;;;;;5059962;28;20518;-62
2022/02/11 08:36:42;;;;;;;;;;;20.20;52.00;;;;;;5060505;28;20440;-62
2022/02/11 08:39:09;;;;;;;;;;;20.10;51.90;;;;;;5060570;28;19921;-62
2022/02/11 08:41:34;;;;;;;;;;;20.20;51.90;;;;;;5060825;28;19908;-62
2022/02/11 08:44:01;;;;;;;;;;;20.20;51.90;;;;;;5061110;28;20507;-63
2022/02/11 08:46:27;;;;;;;;;;;20.10;51.80;;;;;;5060678;28;19916;-62
2022/02/11 08:48:52;;;;;;;;;;;20.10;51.70;;;;;;5060968;28;19966;-62
2022/02/11 08:51:18;;;;;;;;;;;20.10;51.70;;;;;;5062549;28;19916;-63
2022/02/11 08:53:44;;;;;;;;;;;20.10;52.40;;;;;;5061946;28;20364;-62
2022/02/11 08:56:10;;;;;;;;;;;20.20;51.70;;;;;;5061727;28;19908;-63
2022/02/11 08:58:35;;;;;;;;;;;20.10;51.70;;;;;;5061127;28;20506;-62
2022/02/11 09:01:01;;;;;;;;;;;20.10;51.70;;;;;;5043980;28;19927;-63
2022/02/11 09:03:26;;;;;;;;;;;20.20;51.70;;;;;;5064996;28;19908;-63
2022/02/11 09:05:52;;;;;;;;;;;20.10;51.60;;;;;;5065975;28;20434;-62
2022/02/11 09:08:17;;;;;;;;;;;20.10;51.60;;;;;;5066366;28;19999;-61
2022/02/11 09:10:47;;;;;;;;;;;20.10;51.70;;;;;;5066646;28;20447;-64
2022/02/11 09:13:12;;;;;;;;;;;20.10;51.60;;;;;;5066024;28;19919;-63
2022/02/11 09:15:38;;;;;;;;;;;20.10;51.60;;;;;;5065296;28;20341;-62
2022/02/11 09:18:03;;;;;;;;;;;20.10;51.60;;;;;;5064600;28;19920;-63
2022/02/11 09:20:29;;;;;;;;;;;20.10;51.70;;;;;;5047284;28;19927;-62
2022/02/11 09:22:54;;;;;;;;;;;20.10;51.80;;;;;;5061566;28;20258;-62
2022/02/11 09:25:20;;;;;;;;;;;20.10;51.70;;;;;;5063881;28;19908;-62
2022/02/11 09:27:46;;;;;;;;;;;20.00;51.70;;;;;;5064379;28;19908;-61
2022/02/11 09:30:11;;;;;;;;;;;20.00;51.80;;;;;;5064259;28;20284;-63
2022/02/11 09:32:37;;;;;;;;;;;20.00;51.90;;;;;;5064096;28;19926;-62
2022/02/11 09:35:02;;;;;;;;;;;20.00;51.80;;;;;;5060276;28;20360;-62
2022/02/11 09:37:28;;;;;;;;;;;20.00;51.80;;;;;;5065357;28;19908;-63
2022/02/11 09:39:54;;;;;;;;;;;19.90;51.80;;;;;;5065221;28;20336;-63
2022/02/11 09:42:20;;;;;;;;;;;19.90;51.90;;;;;;5065119;28;19913;-63
2022/02/11 09:44:46;;;;;;;;;;;19.90;51.80;;;;;;5046569;28;19909;-61
2022/02/11 09:47:12;;;;;;;;;;;20.00;51.90;;;;;;5057667;28;19924;-63
2022/02/11 09:49:37;;;;;;;;;;;19.90;51.80;;;;;;5064259;28;20365;-62
2022/02/11 09:52:05;;;;;;;;;;;20.00;51.70;;;;;;5064193;28;19913;-62
2022/02/11 09:54:32;;;;;;;;;;;20.00;51.40;;;;;;5064464;28;20011;-63
2022/02/11 09:56:58;;;;;;;;;;;20.00;51.40;;;;;;5064991;28;20299;-63
2022/02/11 09:59:23;;;;;;;;;;;20.00;51.30;;;;;;5065240;28;19973;-62
2022/02/11 10:01:49;;;;;;;;;;;20.00;51.40;;;;;;5047735;28;20364;-62
2022/02/11 10:04:18;;;;;;;;;;;20.00;51.40;;;;;;5043566;28;20089;-62
2022/02/11 10:06:48;;;;;;;;;;;20.00;51.40;;;;;;5068515;28;19913;-62
2022/02/11 10:09:13;;;;;;;;;;;20.00;51.40;;;;;;5065103;28;19995;-62
2022/02/11 10:11:39;;;;;;;;;;;20.00;51.40;;;;;;5065549;28;20003;-64
2022/02/11 10:14:17;;;;;;;;;;;20.00;51.50;;;;;;5063707;28;19908;-63
2022/02/11 10:16:55;;;;;;;;;;;20.00;51.60;;;;;;5064599;28;19970;-61
2022/02/11 10:19:36;;;;;;;;;;;20.00;51.60;;;;;;5005550;28;19908;-64
2022/02/11 10:22:08;;;;;;;;;;;20.00;51.60;;;;;;5064560;28;19908;-62
2022/02/11 10:24:34;;;;;;;;;;;20.00;51.70;;;;;;5064745;28;19915;-62
2022/02/11 10:26:59;;;;;;;;;;;20.00;51.80;;;;;;5065151;28;19908;-63
2022/02/11 10:29:25;;;;;;;;;;;20.00;51.90;;;;;;5065542;28;19909;-63
2022/02/11 10:31:50;;;;;;;;;;;20.00;52.00;;;;;;5066185;28;20392;-65
2022/02/11 10:34:18;;;;;;;;;;;19.90;51.90;;;;;;5065328;28;20014;-66
2022/02/11 10:36:46;;;;;;;;;;;19.90;52.00;;;;;;5065151;28;19916;-65
2022/02/11 10:39:21;;;;;;;;;;;20.00;52.30;;;;;;5047013;28;19916;-65
2022/02/11 10:41:52;;;;;;;;;;;20.00;52.30;;;;;;5044314;28;19975;-66
2022/02/11 10:44:18;;;;;;;;;;;19.90;52.30;;;;;;5064592;28;19915;-65
2022/02/11 10:46:45;;;;;;;;;;;19.90;52.50;;;;;;5064797;28;20308;-66
2022/02/11 10:49:10;;;;;;;;;;;19.90;52.50;;;;;;5064211;28;19908;-65
2022/02/11 10:51:39;;;;;;;;;;;20.00;52.40;;;;;;5064528;28;19918;-65
2022/02/11 10:54:20;;;;;;;;;;;20.00;52.60;;;;;;5063942;28;19908;-65
2022/02/11 10:56:46;;;;;;;;;;;20.00;52.60;;;;;;5063333;28;19909;-66
2022/02/11 10:59:11;;;;;;;;;;;20.00;52.60;;;;;;5063377;28;20018;-66
2022/02/11 11:01:37;;;;;;;;;;;20.00;52.60;;;;;;5046640;28;20372;-66
2022/02/11 11:04:02;;;;;;;;;;;20.00;52.50;;;;;;5029743;28;19916;-66
2022/02/11 11:06:28;;;;;;;;;;;20.00;52.60;;;;;;5046162;28;19962;-65
2022/02/11 11:08:55;;;;;;;;;;;20.00;52.60;;;;;;5064488;28;19908;-67
2022/02/11 11:11:21;;;;;;;;;;;20.00;52.70;;;;;;5065052;28;19909;-65
2022/02/11 11:13:48;;;;;;;;;;;20.00;52.80;;;;;;5047163;28;19909;-66
2022/02/11 11:16:14;;;;;;;;;;;20.00;52.70;;;;;;5065668;28;19912;-63
2022/02/11 11:18:40;;;;;;;;;;;20.00;52.80;;;;;;5047835;28;19919;-63
2022/02/11 11:21:07;;;;;;;;;;;19.90;52.80;;;;;;5066059;28;19909;-64
2022/02/11 11:23:35;;;;;;;;;;;20.00;52.90;;;;;;5073914;28;19938;-63
2022/02/11 11:26:05;;;;;;;;;;;20.00;53.00;;;;;;5047235;28;19908;-63
2022/02/11 11:28:40;;;;;;;;;;;20.00;53.00;;;;;;5062980;28;19909;-63
2022/02/11 11:31:12;;;;;;;;;;;20.00;53.10;;;;;;5063858;28;20465;-62
2022/02/11 11:33:38;;;;;;;;;;;19.90;53.00;;;;;;5063717;28;19952;-61
2022/02/11 11:36:04;;;;;;;;;;;19.90;53.00;;;;;;5063642;28;20455;-63
2022/02/11 11:38:38;;;;;;;;;;;20.00;53.10;;;;;;5063788;28;19999;-61
2022/02/11 11:41:12;;;;;;;;;;;20.00;53.20;;;;;;5064123;28;19912;-61
2022/02/11 11:43:38;;;;;;;;;;;20.00;53.10;;;;;;5062642;28;19917;-62
2022/02/11 11:46:04;;;;;;;;;;;19.90;53.10;;;;;;5062775;28;20328;-63
2022/02/11 11:48:39;;;;;;;;;;;19.90;53.20;;;;;;5063351;28;19915;-62
2022/02/11 11:51:04;;;;;;;;;;;19.90;53.20;;;;;;5058340;28;19909;-61
2022/02/11 11:53:30;;;;;;;;;;;19.90;53.30;;;;;;5062855;28;19969;-62
2022/02/11 11:55:55;;;;;;;;;;;19.90;53.20;;;;;;5062937;28;19920;-62
2022/02/11 11:58:31;;;;;;;;;;;19.90;53.30;;;;;;5063266;28;19909;-60
2022/02/11 12:01:01;;;;;;;;;;;19.90;53.30;;;;;;5045218;28;19909;-61
2022/02/11 12:03:27;;;;;;;;;;;19.90;53.30;;;;;;5063438;28;19914;-62
2022/02/11 12:05:56;;;;;;;;;;;19.90;53.30;;;;;;5062645;28;19912;-62
2022/02/11 12:08:27;;;;;;;;;;;19.90;53.30;;;;;;5063396;28;19915;-60
2022/02/11 12:10:53;;;;;;;;;;;19.90;53.30;;;;;;5045481;28;20406;-61
2022/02/11 12:13:19;;;;;;;;;;;19.90;53.30;;;;;;5044921;28;19920;-63
2022/02/11 12:15:45;;;;;;;;;;;19.90;53.30;;;;;;5062387;28;19931;-62
2022/02/11 12:18:10;;;;;;;;;;;19.90;53.30;;;;;;5063450;28;19931;-63
2022/02/11 12:20:38;;;;;;;;;;;19.90;53.30;;;;;;5061831;28;19913;-62
2022/02/11 12:28:35;;;;;;;;;;;19.90;53.60;;;;;;5062454;28;19915;-61
2022/02/11 12:31:04;;;;;;;;;;;20.00;53.80;;;;;;5044847;28;19908;-62
2022/02/11 12:33:29;;;;;;;;;;;19.90;53.90;;;;;;5062859;28;20004;-62
2022/02/11 12:36:06;;;;;;;;;;;19.90;53.90;;;;;;5061896;28;19980;-63
2022/02/11 12:38:31;;;;;;;;;;;19.90;54.00;;;;;;5064998;28;20301;-61
2022/02/11 12:40:57;;;;;;;;;;;19.90;54.10;;;;;;5066401;28;19935;-62
2022/02/11 12:43:26;;;;;;;;;;;20.00;54.30;;;;;;5067397;28;20288;-62
2022/02/11 12:45:52;;;;;;;;;;;19.90;54.30;;;;;;5067503;28;19912;-63
2022/02/11 12:48:17;;;;;;;;;;;20.00;54.30;;;;;;5066288;28;19919;-63
2022/02/11 12:50:44;;;;;;;;;;;20.00;54.30;;;;;;5065883;28;19908;-62
2022/02/11 12:53:10;;;;;;;;;;;20.00;54.30;;;;;;5045182;28;19946;-61
2022/02/11 12:55:36;;;;;;;;;;;20.00;54.30;;;;;;5063672;28;19948;-61
2022/02/11 12:58:03;;;;;;;;;;;19.90;54.30;;;;;;5050947;28;19943;-62
2022/02/11 13:00:30;;;;;;;;;;;20.00;54.30;;;;;;5044882;28;19978;-60
2022/02/11 13:02:58;;;;;;;;;;;19.90;54.30;;;;;;5063516;28;19999;-63
2022/02/11 13:05:24;;;;;;;;;;;19.90;54.20;;;;;;5047733;28;19912;-63
2022/02/11 13:07:51;;;;;;;;;;;19.90;54.20;;;;;;5047796;28;19947;-64
2022/02/11 13:10:17;;;;;;;;;;;20.00;54.20;;;;;;5065550;28;20358;-62
2022/02/11 13:12:43;;;;;;;;;;;20.00;54.20;;;;;;5066453;28;19966;-63
2022/02/11 13:15:09;;;;;;;;;;;20.00;54.20;;;;;;5065801;28;20312;-62
2022/02/11 13:17:34;;;;;;;;;;;20.00;54.20;;;;;;5066412;28;19908;-63
2022/02/11 13:20:03;;;;;;;;;;;19.90;54.10;;;;;;5046530;28;20288;-63
2022/02/11 13:22:29;;;;;;;;;;;19.90;54.10;;;;;;5066402;28;19916;-63
2022/02/11 13:24:54;;;;;;;;;;;19.90;54.10;;;;;;5066488;28;19916;-64
2022/02/11 13:27:20;;;;;;;;;;;20.00;54.10;;;;;;5048294;28;19908;-62
2022/02/11 13:29:55;;;;;;;;;;;19.90;54.00;;;;;;5065046;28;19908;-61
2022/02/11 13:32:27;;;;;;;;;;;19.90;54.10;;;;;;5045700;28;19912;-65
2022/02/11 13:35:05;;;;;;;;;;;19.90;54.00;;;;;;5065637;28;19916;-67
2022/02/11 13:37:43;;;;;;;;;;;19.90;54.00;;;;;;5065976;28;19909;-65
2022/02/11 13:40:10;;;;;;;;;;;19.90;54.00;;;;;;5052229;28;20284;-64
2022/02/11 13:42:35;;;;;;;;;;;20.00;54.00;;;;;;5065776;28;19920;-65
2022/02/11 13:45:03;;;;;;;;;;;19.90;54.00;;;;;;5065208;28;19916;-66
2022/02/11 13:47:28;;;;;;;;;;;19.90;53.90;;;;;;5047565;28;20490;-66
2022/02/11 13:50:00;;;;;;;;;;;19.90;53.90;;;;;;5064694;28;19942;-66
2022/02/11 13:55:11;;;;;;;;;;;19.90;53.90;;;;;;5064291;28;19915;-65
2022/02/11 13:57:36;;;;;;;;;;;19.90;53.90;;;;;;5066357;28;20472;-65
2022/02/11 14:00:22;;;;;;;;;;;19.90;53.80;;;;;;5064391;28;19999;-64
2022/02/11 14:02:47;;;;;;;;;;;19.90;53.80;;;;;;5060785;28;19915;-66
2022/02/11 14:05:12;;;;;;;;;;;19.90;53.80;;;;;;5046233;28;20056;-65
2022/02/11 14:07:38;;;;;;;;;;;19.90;53.80;;;;;;5047242;28;19908;-65
2022/02/11 14:10:19;;;;;;;;;;;19.90;53.70;;;;;;5046672;28;19923;-62
2022/02/11 14:12:44;;;;;;;;;;;19.90;53.80;;;;;;5064785;28;20526;-63
2022/02/11 14:15:10;;;;;;;;;;;20.00;53.80;;;;;;5064712;28;19909;-61
2022/02/11 14:17:35;;;;;;;;;;;19.90;53.80;;;;;;5065421;28;20381;-62
2022/02/11 14:20:01;;;;;;;;;;;19.90;53.80;;;;;;5063738;28;19913;-63
2022/02/11 14:22:26;;;;;;;;;;;19.90;53.80;;;;;;5064199;28;20355;-63
2022/02/11 14:24:52;;;;;;;;;;;19.90;53.70;;;;;;5065194;28;19947;-62
2022/02/11 14:27:17;;;;;;;;;;;19.90;53.80;;;;;;5064517;28;20176;-63
2022/02/11 14:29:43;;;;;;;;;;;19.90;53.70;;;;;;5045509;28;19914;-63
2022/02/11 14:32:08;;;;;;;;;;;19.90;53.70;;;;;;5065039;28;20273;-62
2022/02/11 14:34:34;;;;;;;;;;;19.90;53.70;;;;;;5064425;28;20393;-64
2022/02/11 14:36:59;;;;;;;;;;;19.90;53.70;;;;;;5064047;28;19923;-63
2022/02/11 14:39:25;;;;;;;;;;;19.90;53.60;;;;;;5063752;28;19908;-61
2022/02/11 14:41:51;;;;;;;;;;;19.90;53.70;;;;;;5047145;28;19916;-63
2022/02/11 14:44:21;;;;;;;;;;;19.90;53.70;;;;;;5063288;28;20389;-64
2022/02/11 14:46:46;;;;;;;;;;;19.90;53.60;;;;;;5064385;28;20298;-65
2022/02/11 14:49:12;;;;;;;;;;;19.90;53.70;;;;;;5045970;28;19951;-61
2022/02/11 14:51:37;;;;;;;;;;;19.90;53.70;;;;;;5045852;28;19916;-61
2022/02/11 14:54:05;;;;;;;;;;;19.90;53.60;;;;;;5063710;28;19916;-62
2022/02/11 14:56:30;;;;;;;;;;;19.90;53.70;;;;;;5060504;28;19913;-61
2022/02/11 14:58:57;;;;;;;;;;;19.90;53.60;;;;;;5058481;22;19909;-65
2022/02/11 15:01:23;;;;;;;;;;;19.90;53.60;;;;;;5001816;28;19921;-66
2022/02/11 15:03:49;;;;;;;;;;;19.90;53.60;;;;;;5036641;28;20248;-67
2022/02/11 15:06:14;;;;;;;;;;;19.90;53.50;;;;;;5046024;28;19911;-66
2022/02/11 15:08:39;;;;;;;;;;;19.90;53.60;;;;;;5046491;28;19904;-66
2022/02/11 15:11:05;;;;;;;;;;;19.90;53.50;;;;;;5042493;28;20390;-66
2022/02/11 15:13:30;;;;;;;;;;;19.90;53.50;;;;;;5046158;28;19920;-66
2022/02/11 15:15:56;;;;;;;;;;;19.90;53.50;;;;;;5046300;28;19911;-67
2022/02/11 15:18:21;;;;;;;;;;;19.90;53.50;;;;;;5046392;28;19905;-67
2022/02/11 15:20:47;;;;;;;;;;;19.90;53.50;;;;;;5046056;28;20369;-67
2022/02/11 15:23:12;;;;;;;;;;;19.90;53.40;;;;;;5046475;28;19915;-66
2022/02/11 15:25:38;;;;;;;;;;;19.90;53.50;;;;;;5046967;28;19991;-67
2022/02/11 15:28:04;;;;;;;;;;;19.90;53.40;;;;;;5046150;28;19966;-67
2022/02/11 15:30:29;;;;;;;;;;;19.90;53.50;;;;;;5045590;28;19927;-67
2022/02/11 15:32:55;;;;;;;;;;;19.90;53.40;;;;;;5045892;28;19919;-68
2022/02/11 15:35:23;;;;;;;;;;;19.90;53.50;;;;;;5044305;28;19909;-67
2022/02/11 15:37:48;;;;;;;;;;;19.90;53.50;;;;;;5046517;28;19962;-67
2022/02/11 15:40:14;;;;;;;;;;;19.90;53.50;;;;;;5045425;28;19904;-67
2022/02/11 15:42:39;;;;;;;;;;;19.90;53.50;;;;;;5046180;28;19904;-65
2022/02/11 15:45:06;;;;;;;;;;;19.90;53.50;;;;;;5033524;28;20451;-67
2022/02/11 15:47:31;;;;;;;;;;;19.90;53.50;;;;;;5025825;28;19912;-67
2022/02/11 15:49:57;;;;;;;;;;;19.90;53.50;;;;;;5025342;28;19987;-65
2022/02/11 15:52:22;;;;;;;;;;;19.90;53.50;;;;;;5039630;28;19962;-68
2022/02/11 15:54:48;;;;;;;;;;;19.90;53.60;;;;;;5041047;28;19971;-68
2022/02/11 15:57:14;;;;;;;;;;;19.90;53.50;;;;;;5045370;28;20363;-68
2022/02/11 15:59:40;;;;;;;;;;;19.90;53.70;;;;;;5044976;28;19913;-69
2022/02/11 16:02:06;;;;;;;;;;;19.90;53.60;;;;;;5046474;28;19911;-67
2022/02/11 16:04:34;;;;;;;;;;;19.90;53.50;;;;;;5042634;28;19911;-68
2022/02/11 16:07:00;;;;;;;;;;;19.90;53.60;;;;;;5032313;28;19947;-68
2022/02/11 16:09:26;;;;;;;;;;;19.90;53.50;;;;;;5043932;28;20297;-69
2022/02/11 16:11:52;;;;;;;;;;;19.90;53.50;;;;;;5044429;28;19915;-68
2022/02/11 16:14:17;;;;;;;;;;;19.90;53.50;;;;;;5044597;28;19908;-68
2022/02/11 16:16:43;;;;;;;;;;;19.90;53.60;;;;;;5033995;28;19905;-68
2022/02/11 16:19:09;;;;;;;;;;;19.90;53.50;;;;;;5045566;28;19912;-67
2022/02/11 16:21:34;;;;;;;;;;;19.90;53.50;;;;;;5031061;28;19904;-68
2022/02/11 16:24:00;;;;;;;;;;;19.90;53.60;;;;;;5045361;28;19917;-68
2022/02/11 16:26:25;;;;;;;;;;;19.90;53.60;;;;;;5037175;28;20318;-67
2022/02/11 16:28:50;;;;;;;;;;;19.90;53.50;;;;;;5044970;28;19923;-68
2022/02/11 16:31:16;;;;;;;;;;;19.90;53.50;;;;;;5045155;28;19948;-68
2022/02/11 16:33:42;;;;;;;;;;;19.90;53.50;;;;;;5045014;28;20410;-68
2022/02/11 16:36:07;;;;;;;;;;;19.90;53.50;;;;;;5044970;28;19915;-67
2022/02/11 16:38:33;;;;;;;;;;;19.90;53.50;;;;;;5045111;28;19911;-67
2022/02/11 16:40:58;;;;;;;;;;;19.90;53.40;;;;;;5043146;28;19936;-68
2022/02/11 16:43:24;;;;;;;;;;;19.90;54.10;;;;;;5045291;28;19913;-68
2022/02/11 16:45:49;;;;;;;;;;;19.90;53.40;;;;;;5031119;28;19939;-67
2022/02/11 16:48:15;;;;;;;;;;;19.90;53.40;;;;;;5032162;28;19904;-67
2022/02/11 16:50:40;;;;;;;;;;;20.00;53.30;;;;;;5043446;28;19908;-69
2022/02/11 16:53:06;;;;;;;;;;;20.00;53.20;;;;;;5044286;28;19920;-68
2022/02/11 16:55:31;;;;;;;;;;;20.00;53.10;;;;;;5044993;28;19916;-68
2022/02/11 16:57:57;;;;;;;;;;;20.00;53.10;;;;;;5044997;28;19905;-67
2022/02/11 17:00:22;;;;;;;;;;;20.00;53.10;;;;;;5042339;28;20270;-66
2022/02/11 17:02:48;;;;;;;;;;;20.00;53.10;;;;;;5042657;28;19951;-66
2022/02/11 17:05:13;;;;;;;;;;;20.00;53.00;;;;;;5044567;28;19912;-66
2022/02/11 17:07:40;;;;;;;;;;;20.00;53.00;;;;;;5046021;28;19904;-66
2022/02/11 17:10:05;;;;;;;;;;;20.00;53.00;;;;;;5044081;28;19905;-66
2022/02/11 17:12:31;;;;;;;;;;;19.90;53.00;;;;;;5044453;28;19927;-67
2022/02/11 17:14:57;;;;;;;;;;;20.00;53.00;;;;;;5045127;28;19951;-67
2022/02/11 17:17:23;;;;;;;;;;;19.90;53.00;;;;;;5026526;28;19905;-68
2022/02/11 17:19:48;;;;;;;;;;;20.00;53.00;;;;;;5044512;28;20327;-67
2022/02/11 17:22:14;;;;;;;;;;;19.90;53.00;;;;;;5044793;28;19905;-68
2022/02/11 17:24:39;;;;;;;;;;;20.00;53.00;;;;;;5047868;28;19905;-68
2022/02/11 17:27:04;;;;;;;;;;;19.90;53.00;;;;;;5043356;28;19916;-67
2022/02/11 17:29:30;;;;;;;;;;;19.90;53.00;;;;;;5048047;28;19916;-67
2022/02/11 17:31:55;;;;;;;;;;;19.90;53.60;;;;;;5044203;28;20414;-68
2022/02/11 17:34:21;;;;;;;;;;;19.90;53.00;;;;;;5048335;28;19932;-68
2022/02/11 17:36:46;;;;;;;;;;;19.90;53.10;;;;;;5043842;28;19943;-68
2022/02/11 17:39:12;;;;;;;;;;;19.90;53.10;;;;;;5047795;28;20284;-68
2022/02/11 17:41:37;;;;;;;;;;;19.90;53.20;;;;;;5047919;28;19932;-67
2022/02/11 17:44:03;;;;;;;;;;;19.90;53.20;;;;;;5047923;28;19983;-68
2022/02/11 17:46:30;;;;;;;;;;;19.90;53.20;;;;;;5041357;28;20387;-67
2022/02/11 17:48:56;;;;;;;;;;;19.90;53.20;;;;;;5046458;28;19904;-67
2022/02/11 17:51:21;;;;;;;;;;;19.90;53.20;;;;;;5047328;28;20038;-67